Terminal Aerodrome Forecast
Issued by NWS

Home | Current Version | Previous Version | Text Only | Print | Product List | Glossary On
Versions: 1 2 3 4 5 6 7 8 9 10 11 12 13 14 15 16 17 18 19 20 21 22 23 24
124
FTAK31 PAJN 200557 AAA
TAFAKW
TAF AMD
PAKW 200557Z 2006/2106 VRB03KT 6SM -RA BR FEW008 SCT015 OVC025
      TEMPO 2006/2010 4SM -RA BR BKN008 OVC015
     FM201000 19004KT 4SM -RA BR BKN008 OVC015
     FM201900 20005KT 6SM -SHRA BR SCT015 OVC025
      AMD LTD TO CLD VIS AND WIND=

USA.gov is the U.S. government's official web portal to all federal, state and local government web resources and services.